createdAt,value
2018-11-10T00:00:19.478Z,92.69
2018-11-10T00:02:49.377Z,92.25
2018-11-10T00:05:19.553Z,93.16
2018-11-10T00:07:49.068Z,92.40
2018-11-10T00:10:18.972Z,93.11
2018-11-10T00:12:48.663Z,92.66
2018-11-10T00:15:17.889Z,93.07
2018-11-10T00:17:47.201Z,93.43
2018-11-10T00:20:16.477Z,93.02
2018-11-10T00:22:45.926Z,93.03
2018-11-10T00:25:15.537Z,92.40
2018-11-10T00:27:45.889Z,91.84
2018-11-10T00:30:16.888Z,92.24
2018-11-10T00:32:46.493Z,92.57
2018-11-10T00:35:15.772Z,92.89
2018-11-10T00:37:45.146Z,93.33
2018-11-10T00:40:15.474Z,94.12
2018-11-10T00:42:45.106Z,94.28
2018-11-10T00:45:14.594Z,94.15
2018-11-10T00:47:44.043Z,93.94
2018-11-10T00:50:13.229Z,94.28
2018-11-10T00:52:42.860Z,93.95
2018-11-10T00:55:12.098Z,93.90
2018-11-10T00:57:41.302Z,93.97
2018-11-10T01:00:12.490Z,93.44
2018-11-10T01:02:42.632Z,93.22
2018-11-10T01:05:11.897Z,93.52
2018-11-10T01:07:41.365Z,93.33
2018-11-10T01:10:12.168Z,93.34
2018-11-10T01:12:41.536Z,93.43
2018-11-10T01:15:14.029Z,93.39
2018-11-10T01:17:43.819Z,93.51
2018-11-10T01:20:13.630Z,93.60
2018-11-10T01:22:43.206Z,93.86
2018-11-10T01:25:12.503Z,93.89
2018-11-10T01:27:41.610Z,94.09
2018-11-10T01:30:13.741Z,93.97
2018-11-10T01:32:43.814Z,94.17
2018-11-10T01:35:13.339Z,93.95
2018-11-10T01:37:42.642Z,94.76
2018-11-10T01:40:13.456Z,95.41
2018-11-10T01:42:43.033Z,95.67
2018-11-10T01:45:14.994Z,96.16
2018-11-10T01:47:44.777Z,96.04
2018-11-10T01:50:13.964Z,96.03
2018-11-10T01:52:43.454Z,96.40
2018-11-10T01:55:13.159Z,96.28
2018-11-10T01:57:43.140Z,96.22
2018-11-10T02:00:14.898Z,96.15
2018-11-10T02:02:44.707Z,96.42
2018-11-10T02:05:14.003Z,96.73
2018-11-10T02:07:43.431Z,96.90
2018-11-10T02:10:13.006Z,97.00
2018-11-10T02:12:42.482Z,97.36
2018-11-10T02:15:15.082Z,98.05
2018-11-10T02:17:44.141Z,97.75
2018-11-10T02:20:14.385Z,97.70
2018-11-10T02:22:44.110Z,97.63
2018-11-10T02:25:13.714Z,97.83
2018-11-10T02:27:43.297Z,97.83
2018-11-10T02:30:12.876Z,97.19
2018-11-10T02:32:42.354Z,97.69
2018-11-10T02:35:12.038Z,98.16
2018-11-10T02:37:41.881Z,97.97
2018-11-10T02:40:13.117Z,98.53
2018-11-10T02:42:42.976Z,98.54
2018-11-10T02:45:13.570Z,98.73
2018-11-10T02:47:43.628Z,99.45
2018-11-10T02:50:12.753Z,99.87
2018-11-10T02:52:41.976Z,100.00
2018-11-10T02:55:11.838Z,100.00
2018-11-10T02:57:41.470Z,100.00
2018-11-10T03:00:12.310Z,99.95
2018-11-10T03:02:41.726Z,100.00
2018-11-10T03:05:11.259Z,100.00
2018-11-10T03:07:40.654Z,99.71
2018-11-10T03:10:11.365Z,100.00
2018-11-10T03:12:41.037Z,100.00
2018-11-10T03:15:11.095Z,100.00
2018-11-10T03:17:40.454Z,100.00
2018-11-10T03:20:12.062Z,100.00
2018-11-10T03:22:41.246Z,100.00
2018-11-10T03:25:10.883Z,100.00
2018-11-10T03:27:40.198Z,100.00
2018-11-10T03:30:09.687Z,100.00
2018-11-10T03:32:39.314Z,100.00
2018-11-10T03:35:09.361Z,100.00
2018-11-10T03:37:38.802Z,100.00
2018-11-10T03:40:09.221Z,100.00
2018-11-10T03:42:38.997Z,100.00
2018-11-10T03:45:09.745Z,100.00
2018-11-10T03:47:39.297Z,100.00
2018-11-10T03:50:09.210Z,100.00
2018-11-10T03:52:38.717Z,99.42
2018-11-10T03:55:08.618Z,100.00
2018-11-10T03:57:37.862Z,100.00
2018-11-10T04:00:10.314Z,100.00
2018-11-10T04:02:39.790Z,100.00
2018-11-10T04:05:09.519Z,100.00
2018-11-10T04:07:39.060Z,100.00
2018-11-10T04:10:08.344Z,100.00
2018-11-10T04:12:37.659Z,100.00
2018-11-10T04:15:07.177Z,100.00
2018-11-10T04:17:36.635Z,100.00
2018-11-10T04:20:06.997Z,100.00
2018-11-10T04:22:37.418Z,100.00
2018-11-10T04:25:10.680Z,100.00
2018-11-10T04:27:40.175Z,100.00
2018-11-10T04:30:10.351Z,100.00
2018-11-10T04:32:39.758Z,100.00
2018-11-10T04:35:09.516Z,100.00
2018-11-10T04:37:38.725Z,100.00
2018-11-10T04:40:08.764Z,100.00
2018-11-10T04:42:38.190Z,100.00
2018-11-10T04:45:08.417Z,100.00
2018-11-10T04:47:37.810Z,100.00
2018-11-10T04:50:08.330Z,100.00
2018-11-10T04:52:37.533Z,100.00
2018-11-10T04:55:07.154Z,100.00
2018-11-10T04:57:36.730Z,100.00
2018-11-10T05:00:07.706Z,100.00
2018-11-10T05:02:37.118Z,100.00
2018-11-10T05:05:06.947Z,100.00
2018-11-10T05:07:36.258Z,100.00
2018-11-10T05:10:06.139Z,100.00
2018-11-10T05:12:35.686Z,100.00
2018-11-10T05:15:05.402Z,100.00
2018-11-10T05:17:34.647Z,100.00
2018-11-10T05:20:03.993Z,100.00
2018-11-10T05:22:33.262Z,100.00
2018-11-10T05:25:02.685Z,100.00
2018-11-10T05:27:32.146Z,100.00
2018-11-10T05:30:01.468Z,100.00
2018-11-10T05:32:30.758Z,100.00
2018-11-10T05:35:00.207Z,100.00
2018-11-10T05:37:29.472Z,100.00
2018-11-10T05:39:58.762Z,100.00
2018-11-10T05:42:27.950Z,98.36
2018-11-10T05:44:57.129Z,96.06
2018-11-10T05:47:26.342Z,95.82
2018-11-10T05:49:55.683Z,94.17
2018-11-10T05:52:24.975Z,92.28
2018-11-10T05:54:54.084Z,87.86
2018-11-10T05:57:23.689Z,84.53
2018-11-10T05:59:52.959Z,79.99
2018-11-10T06:02:23.124Z,78.60
2018-11-10T06:04:52.851Z,75.08
2018-11-10T06:07:22.230Z,73.63
2018-11-10T06:09:51.863Z,71.76
2018-11-10T06:12:21.227Z,70.50
2018-11-10T06:14:50.473Z,67.20
2018-11-10T06:17:19.602Z,66.23
2018-11-10T06:19:48.774Z,66.55
2018-11-10T06:22:18.087Z,65.64
2018-11-10T06:24:47.268Z,63.75
2018-11-10T06:27:16.402Z,62.77
2018-11-10T06:29:45.639Z,61.89
2018-11-10T06:32:14.969Z,61.42
2018-11-10T06:34:44.549Z,60.76
2018-11-10T06:37:13.809Z,59.95
2018-11-10T06:39:43.151Z,59.63
2018-11-10T06:42:12.660Z,59.22
2018-11-10T06:44:41.873Z,58.85
2018-11-10T06:47:11.287Z,58.63
2018-11-10T06:49:40.510Z,58.21
2018-11-10T06:52:09.618Z,57.72
2018-11-10T06:54:38.774Z,57.40
2018-11-10T06:57:07.946Z,56.89
2018-11-10T06:59:37.291Z,56.22
2018-11-10T07:02:07.130Z,55.87
2018-11-10T07:04:36.598Z,56.68
2018-11-10T07:07:05.842Z,55.10
2018-11-10T07:09:35.140Z,55.08
2018-11-10T07:12:04.422Z,55.48
2018-11-10T07:14:33.706Z,55.22
2018-11-10T07:17:02.932Z,54.37
2018-11-10T07:19:32.303Z,56.34
2018-11-10T07:22:01.566Z,54.44
2018-11-10T07:24:30.911Z,55.21
2018-11-10T07:27:00.442Z,55.60
2018-11-10T07:29:29.806Z,54.73
2018-11-10T07:31:59.125Z,54.43
2018-11-10T07:34:28.084Z,53.99
2018-11-10T07:36:57.402Z,54.45
2018-11-10T07:39:26.554Z,54.75
2018-11-10T07:41:55.773Z,55.02
2018-11-10T07:44:25.250Z,56.78
2018-11-10T07:46:54.476Z,58.71
2018-11-10T07:49:23.974Z,59.79
2018-11-10T07:51:53.145Z,60.20
2018-11-10T07:54:22.444Z,62.48
2018-11-10T07:56:51.515Z,63.38
2018-11-10T07:59:20.707Z,64.66
2018-11-10T08:01:50.074Z,65.40
2018-11-10T08:04:19.444Z,65.27
2018-11-10T08:06:48.797Z,66.31
2018-11-10T08:09:18.074Z,67.24
2018-11-10T08:11:47.404Z,66.61
2018-11-10T08:14:16.929Z,66.83
2018-11-10T08:16:46.290Z,67.72
2018-11-10T08:19:15.388Z,67.55
2018-11-10T08:21:44.728Z,67.81
2018-11-10T08:24:13.988Z,66.06
2018-11-10T08:26:43.380Z,65.92
2018-11-10T08:29:12.504Z,66.06
2018-11-10T08:31:41.642Z,66.22
2018-11-10T08:34:10.894Z,65.84
2018-11-10T08:36:40.055Z,65.17
2018-11-10T08:39:10.834Z,64.73
2018-11-10T08:41:40.023Z,65.66
2018-11-10T08:44:09.531Z,65.50
2018-11-10T08:46:38.922Z,64.45
2018-11-10T08:49:08.144Z,64.82
2018-11-10T08:51:37.494Z,66.36
2018-11-10T08:54:08.569Z,66.26
2018-11-10T08:56:38.008Z,66.19
2018-11-10T08:59:07.380Z,65.82
2018-11-10T09:01:36.514Z,65.94
2018-11-10T09:04:06.228Z,65.95
2018-11-10T09:06:35.630Z,65.65
2018-11-10T09:09:06.674Z,66.37
2018-11-10T09:11:36.090Z,66.23
2018-11-10T09:14:05.515Z,67.04
2018-11-10T09:16:34.756Z,65.74
2018-11-10T09:19:04.024Z,65.58
2018-11-10T09:21:33.414Z,64.52
2018-11-10T09:24:02.770Z,64.20
2018-11-10T09:26:32.003Z,64.26
2018-11-10T09:29:01.309Z,64.46
2018-11-10T09:31:30.598Z,64.42
2018-11-10T09:34:00.166Z,64.89
2018-11-10T09:36:30.518Z,64.14
2018-11-10T09:38:59.811Z,62.96
2018-11-10T09:41:29.290Z,64.06
2018-11-10T09:43:58.445Z,63.78
2018-11-10T09:46:28.113Z,63.71
2018-11-10T09:48:57.303Z,63.17
2018-11-10T09:51:26.619Z,62.64
2018-11-10T09:53:55.801Z,61.76
2018-11-10T09:56:25.082Z,62.60
2018-11-10T09:58:54.508Z,62.18
2018-11-10T10:01:23.890Z,61.39
2018-11-10T10:03:53.187Z,60.25
2018-11-10T10:06:22.288Z,60.82
2018-11-10T10:08:51.610Z,60.86
2018-11-10T10:11:20.898Z,59.72
2018-11-10T10:13:50.326Z,59.67
2018-11-10T10:16:20.066Z,60.18
2018-11-10T10:18:49.191Z,59.52
2018-11-10T10:21:18.685Z,58.31
2018-11-10T10:23:48.092Z,57.96
2018-11-10T10:26:17.408Z,58.43
2018-11-10T10:28:46.703Z,59.08
2018-11-10T10:31:16.179Z,58.71
2018-11-10T10:33:45.384Z,58.71
2018-11-10T10:36:14.562Z,58.34
2018-11-10T10:38:43.791Z,58.08
2018-11-10T10:41:12.995Z,57.44
2018-11-10T10:43:42.299Z,57.21
2018-11-10T10:46:11.468Z,56.36
2018-11-10T10:48:41.067Z,56.15
2018-11-10T10:51:10.618Z,55.74
2018-11-10T10:53:39.895Z,54.93
2018-11-10T10:56:09.261Z,54.60
2018-11-10T10:58:38.515Z,54.68
2018-11-10T11:01:12.876Z,54.63
2018-11-10T11:05:49.433Z,54.65
2018-11-10T11:08:18.514Z,54.03
2018-11-10T11:10:47.614Z,54.66
2018-11-10T11:13:17.318Z,54.23
2018-11-10T11:15:46.696Z,53.68
2018-11-10T11:18:16.013Z,54.35
2018-11-10T11:20:45.233Z,54.82
2018-11-10T11:23:14.596Z,54.71
2018-11-10T11:25:44.074Z,54.55
2018-11-10T11:28:13.344Z,53.93
2018-11-10T11:30:42.499Z,52.86
2018-11-10T11:33:11.730Z,52.58
2018-11-10T11:35:40.834Z,53.42
2018-11-10T11:38:10.305Z,53.56
2018-11-10T11:40:39.483Z,53.59
2018-11-10T11:43:08.745Z,53.25
2018-11-10T11:45:37.985Z,52.94
2018-11-10T11:48:07.395Z,53.41
2018-11-10T11:50:36.775Z,53.67
2018-11-10T11:53:06.411Z,53.37
2018-11-10T11:55:35.665Z,53.39
2018-11-10T11:58:05.187Z,53.43
2018-11-10T12:00:34.370Z,53.48
2018-11-10T12:03:03.917Z,53.35
2018-11-10T12:05:32.934Z,53.04
2018-11-10T12:08:02.240Z,53.05
2018-11-10T12:10:31.567Z,53.19
2018-11-10T12:13:00.842Z,54.05
2018-11-10T12:15:30.012Z,54.02
2018-11-10T12:17:59.064Z,53.58
2018-11-10T12:20:28.247Z,53.45
2018-11-10T12:22:57.431Z,53.24
2018-11-10T12:25:26.534Z,53.35
2018-11-10T12:27:56.123Z,52.68
2018-11-10T12:30:25.319Z,52.52
2018-11-10T12:32:54.438Z,53.49
2018-11-10T12:35:23.824Z,54.07
2018-11-10T12:37:53.151Z,54.10
2018-11-10T12:40:22.894Z,54.47
2018-11-10T12:42:52.397Z,54.96
2018-11-10T12:45:21.574Z,54.81
2018-11-10T12:47:50.659Z,54.40
2018-11-10T12:50:19.894Z,54.08
2018-11-10T12:52:49.510Z,54.04
2018-11-10T12:55:18.846Z,54.46
2018-11-10T12:57:48.250Z,54.50
2018-11-10T13:00:18.095Z,53.76
2018-11-10T13:02:47.321Z,53.72
2018-11-10T13:05:16.845Z,53.56
2018-11-10T13:07:47.135Z,53.31
2018-11-10T13:10:16.353Z,53.16
2018-11-10T13:12:45.822Z,53.47
2018-11-10T13:15:15.159Z,53.21
2018-11-10T13:17:44.481Z,53.18
2018-11-10T13:20:14.866Z,53.12
2018-11-10T13:22:44.196Z,53.23
2018-11-10T13:25:14.290Z,53.17
2018-11-10T13:27:43.514Z,52.73
2018-11-10T13:30:14.166Z,52.52
2018-11-10T13:32:43.411Z,52.24
2018-11-10T13:35:13.003Z,52.61
2018-11-10T13:37:42.229Z,52.90
2018-11-10T13:40:12.230Z,52.78
2018-11-10T13:42:41.362Z,53.03
2018-11-10T13:45:12.438Z,53.18
2018-11-10T13:47:41.858Z,52.64
2018-11-10T13:50:11.913Z,52.21
2018-11-10T13:52:42.326Z,52.03
2018-11-10T13:55:11.750Z,52.01
2018-11-10T13:57:41.195Z,51.75
2018-11-10T14:00:13.973Z,52.05
2018-11-10T14:02:43.382Z,51.82
2018-11-10T14:05:13.202Z,51.47
2018-11-10T14:07:42.555Z,51.51
2018-11-10T14:10:13.529Z,51.27
2018-11-10T14:12:43.568Z,51.63
2018-11-10T14:15:12.785Z,51.94
2018-11-10T14:17:42.759Z,51.61
2018-11-10T14:20:13.817Z,51.96
2018-11-10T14:22:43.215Z,51.76
2018-11-10T14:25:13.795Z,51.47
2018-11-10T14:27:43.628Z,51.70
2018-11-10T14:30:15.066Z,51.65
2018-11-10T14:32:44.705Z,51.78
2018-11-10T14:35:14.242Z,51.92
2018-11-10T14:37:43.610Z,52.27
2018-11-10T14:40:14.200Z,52.10
2018-11-10T14:42:43.860Z,52.47
2018-11-10T14:45:14.260Z,53.70
2018-11-10T14:47:44.380Z,54.72
2018-11-10T14:50:14.490Z,55.62
2018-11-10T14:52:43.951Z,56.32
2018-11-10T14:55:13.674Z,57.08
2018-11-10T14:57:43.152Z,57.18
2018-11-10T15:00:16.489Z,57.59
2018-11-10T15:02:45.616Z,57.92
2018-11-10T15:05:15.122Z,58.55
2018-11-10T15:07:44.754Z,59.08
2018-11-10T15:10:15.309Z,59.46
2018-11-10T15:12:45.186Z,59.46
2018-11-10T15:15:15.520Z,59.71
2018-11-10T15:17:46.425Z,60.01
2018-11-10T15:20:17.015Z,60.52
2018-11-10T15:22:46.096Z,60.54
2018-11-10T15:25:16.967Z,61.02
2018-11-10T15:27:46.238Z,60.98
2018-11-10T15:30:17.997Z,60.89
2018-11-10T15:32:47.806Z,61.23
2018-11-10T15:35:18.318Z,61.50
2018-11-10T15:37:48.585Z,62.83
2018-11-10T15:40:18.362Z,63.14
2018-11-10T15:42:47.714Z,62.49
2018-11-10T15:45:17.953Z,63.34
2018-11-10T15:47:47.426Z,63.42
2018-11-10T15:50:17.499Z,63.63
2018-11-10T15:52:46.890Z,64.10
2018-11-10T15:55:16.041Z,63.79
2018-11-10T15:57:45.107Z,63.04
2018-11-10T16:00:16.664Z,63.65
2018-11-10T16:02:46.085Z,63.97
2018-11-10T16:05:15.827Z,63.54
2018-11-10T16:07:45.303Z,63.90
2018-11-10T16:10:14.740Z,64.10
2018-11-10T16:12:44.136Z,64.17
2018-11-10T16:15:15.540Z,64.37
2018-11-10T16:17:45.175Z,64.04
2018-11-10T16:20:16.999Z,63.79
2018-11-10T16:22:47.568Z,64.31
2018-11-10T16:25:17.272Z,63.78
2018-11-10T16:27:46.829Z,64.36
2018-11-10T16:30:17.285Z,64.79
2018-11-10T16:32:46.603Z,64.49
2018-11-10T16:35:15.870Z,64.53
2018-11-10T16:37:45.059Z,65.04
2018-11-10T16:40:16.334Z,65.15
2018-11-10T16:42:46.306Z,64.90
2018-11-10T16:45:16.115Z,64.90
2018-11-10T16:47:45.729Z,65.01
2018-11-10T16:50:14.899Z,64.29
2018-11-10T16:52:44.398Z,63.97
2018-11-10T16:55:13.872Z,63.90
2018-11-10T16:57:43.157Z,64.04
2018-11-10T17:00:15.099Z,63.73
2018-11-10T17:02:44.461Z,63.29
2018-11-10T17:05:13.575Z,63.52
2018-11-10T17:07:42.844Z,63.41
2018-11-10T17:10:14.494Z,63.74
2018-11-10T17:12:44.055Z,64.02
2018-11-10T17:15:13.354Z,64.33
2018-11-10T17:17:42.586Z,64.14
2018-11-10T17:20:13.795Z,64.48
2018-11-10T17:22:43.142Z,64.56
2018-11-10T17:25:13.115Z,64.73
2018-11-10T17:27:42.785Z,64.79
2018-11-10T17:30:14.617Z,65.10
2018-11-10T17:32:44.170Z,64.72
2018-11-10T17:35:13.624Z,65.26
2018-11-10T17:37:42.933Z,65.30
2018-11-10T17:40:13.009Z,65.64
2018-11-10T17:42:42.346Z,65.75
2018-11-10T17:45:13.679Z,65.99
2018-11-10T17:47:43.325Z,65.96
2018-11-10T17:50:14.402Z,66.02
2018-11-10T17:52:44.581Z,66.09
2018-11-10T17:55:14.804Z,65.95
2018-11-10T17:57:44.686Z,66.55
2018-11-10T18:00:14.125Z,66.67
2018-11-10T18:02:43.211Z,66.65
2018-11-10T18:05:13.855Z,66.78
2018-11-10T18:07:43.205Z,67.03
2018-11-10T18:10:14.054Z,67.22
2018-11-10T18:12:44.008Z,67.46
2018-11-10T18:15:13.659Z,67.58
2018-11-10T18:17:43.226Z,67.92
2018-11-10T18:20:14.055Z,68.29
2018-11-10T18:22:43.678Z,68.66
2018-11-10T18:25:13.120Z,68.22
2018-11-10T18:27:42.345Z,68.76
2018-11-10T18:30:13.495Z,69.01
2018-11-10T18:32:42.962Z,68.97
2018-11-10T18:35:12.646Z,69.47
2018-11-10T18:37:42.346Z,69.37
2018-11-10T18:40:11.745Z,69.65
2018-11-10T18:42:41.031Z,69.64
2018-11-10T18:45:11.133Z,70.24
2018-11-10T18:47:41.034Z,69.99
2018-11-10T18:50:13.632Z,70.15
2018-11-10T18:52:43.137Z,70.47
2018-11-10T18:55:13.006Z,70.51
2018-11-10T18:57:42.518Z,71.10
2018-11-10T19:00:13.778Z,70.88
2018-11-10T19:02:43.031Z,71.10
2018-11-10T19:05:13.689Z,71.14
2018-11-10T19:07:43.056Z,71.55
2018-11-10T19:10:13.865Z,71.67
2018-11-10T19:12:43.249Z,71.60
2018-11-10T19:15:16.047Z,71.85
2018-11-10T19:17:45.746Z,71.56
2018-11-10T19:20:15.442Z,72.05
2018-11-10T19:22:44.683Z,71.81
2018-11-10T19:25:14.731Z,72.41
2018-11-10T19:27:44.119Z,72.17
2018-11-10T19:30:15.138Z,72.17
2018-11-10T19:32:44.854Z,72.40
2018-11-10T19:35:14.597Z,72.60
2018-11-10T19:37:44.019Z,72.62
2018-11-10T19:40:13.490Z,73.02
2018-11-10T19:42:43.669Z,72.94
2018-11-10T19:45:13.133Z,73.30
2018-11-10T19:47:43.480Z,73.04
2018-11-10T19:50:13.289Z,73.78
2018-11-10T19:52:42.826Z,73.61
2018-11-10T19:55:14.306Z,74.17
2018-11-10T19:57:43.886Z,74.33
2018-11-10T20:00:15.963Z,74.30
2018-11-10T20:02:45.240Z,75.20
2018-11-10T20:05:14.513Z,75.37
2018-11-10T20:07:43.853Z,76.33
2018-11-10T20:10:13.551Z,76.35
2018-11-10T20:12:43.678Z,77.25
2018-11-10T20:15:14.220Z,77.36
2018-11-10T20:17:43.963Z,77.49
2018-11-10T20:20:14.328Z,77.76
2018-11-10T20:22:43.810Z,78.21
2018-11-10T20:25:14.170Z,78.90
2018-11-10T20:27:43.549Z,79.10
2018-11-10T20:30:16.268Z,79.62
2018-11-10T20:32:45.477Z,79.84
2018-11-10T20:35:14.968Z,80.40
2018-11-10T20:37:44.811Z,80.47
2018-11-10T20:40:14.741Z,80.15
2018-11-10T20:42:44.230Z,80.61
2018-11-10T20:45:15.285Z,80.17
2018-11-10T20:47:44.471Z,80.87
2018-11-10T20:50:14.296Z,81.16
2018-11-10T20:52:43.717Z,81.44
2018-11-10T20:55:13.374Z,81.71
2018-11-10T20:57:42.580Z,81.91
2018-11-10T21:00:14.264Z,81.86
2018-11-10T21:02:43.973Z,81.58
2018-11-10T21:05:13.686Z,81.86
2018-11-10T21:07:43.022Z,82.43
2018-11-10T21:10:14.159Z,82.17
2018-11-10T21:12:44.104Z,82.77
2018-11-10T21:15:13.530Z,83.17
2018-11-10T21:17:43.175Z,83.17
2018-11-10T21:20:12.968Z,83.24
2018-11-10T21:22:42.631Z,83.82
2018-11-10T21:25:13.583Z,83.58
2018-11-10T21:27:43.175Z,83.75
2018-11-10T21:30:13.815Z,83.71
2018-11-10T21:32:43.124Z,84.08
2018-11-10T21:35:12.629Z,84.54
2018-11-10T21:37:41.939Z,84.79
2018-11-10T21:40:13.640Z,85.03
2018-11-10T21:42:43.358Z,84.89
2018-11-10T21:45:13.350Z,85.23
2018-11-10T21:47:42.614Z,85.39
2018-11-10T21:50:14.175Z,85.48
2018-11-10T21:52:44.334Z,85.62
2018-11-10T21:55:14.739Z,85.97
2018-11-10T21:57:44.930Z,86.38
2018-11-10T22:00:15.799Z,86.06
2018-11-10T22:02:45.511Z,87.07
2018-11-10T22:05:14.590Z,86.74
2018-11-10T22:07:43.721Z,86.85
2018-11-10T22:10:14.429Z,87.18
2018-11-10T22:12:44.041Z,86.96
2018-11-10T22:15:14.709Z,87.23
2018-11-10T22:17:44.825Z,87.17
2018-11-10T22:20:15.126Z,88.01
2018-11-10T22:22:44.405Z,88.01
2018-11-10T22:25:14.159Z,87.77
2018-11-10T22:27:44.706Z,88.26
2018-11-10T22:30:15.227Z,87.93
2018-11-10T22:32:45.048Z,88.85
2018-11-10T22:35:14.470Z,88.52
2018-11-10T22:37:43.675Z,88.23
2018-11-10T22:40:14.397Z,89.15
2018-11-10T22:42:44.124Z,88.63
2018-11-10T22:45:14.750Z,88.83
2018-11-10T22:47:44.090Z,89.44
2018-11-10T22:50:15.515Z,89.12
2018-11-10T22:52:45.021Z,89.47
2018-11-10T22:55:14.368Z,89.32
2018-11-10T22:57:43.594Z,88.99
2018-11-10T23:00:17.092Z,89.25
2018-11-10T23:02:48.121Z,90.13
2018-11-10T23:05:17.935Z,90.33
2018-11-10T23:07:47.165Z,89.66
2018-11-10T23:10:16.823Z,89.87
2018-11-10T23:12:46.974Z,89.57
2018-11-10T23:15:16.206Z,90.17
2018-11-10T23:17:45.510Z,90.15
2018-11-10T23:20:16.057Z,90.02
2018-11-10T23:22:45.372Z,90.31
2018-11-10T23:25:15.893Z,90.05
2018-11-10T23:27:45.217Z,89.95
2018-11-10T23:30:16.467Z,89.87
2018-11-10T23:32:45.927Z,89.51
2018-11-10T23:35:15.442Z,88.90
2018-11-10T23:37:44.742Z,89.04
2018-11-10T23:40:15.107Z,89.80
2018-11-10T23:42:44.574Z,89.54
2018-11-10T23:45:14.450Z,89.65
2018-11-10T23:47:43.751Z,89.97
2018-11-10T23:50:15.449Z,89.98
2018-11-10T23:52:44.830Z,89.87
2018-11-10T23:55:14.686Z,89.83
2018-11-10T23:57:43.939Z,89.59
